sensor_id;sensor_type;location;lat;lon;timestamp;pressure;altitude;pressure_sealevel;temperature;humidity
57574;BME280;43409;48.858;21.906;2022-07-29T00:02:25;98810.31;;;25.13;49.83
57574;BME280;43409;48.858;21.906;2022-07-29T00:04:51;98799.09;;;25.06;49.60
57574;BME280;43409;48.858;21.906;2022-07-29T00:07:17;98817.03;;;25.15;49.76
57574;BME280;43409;48.858;21.906;2022-07-29T00:09:42;98803.59;;;25.20;49.62
57574;BME280;43409;48.858;21.906;2022-07-29T00:12:07;98797.19;;;25.11;49.55
57574;BME280;43409;48.858;21.906;2022-07-29T00:14:33;98801.22;;;25.14;49.92
57574;BME280;43409;48.858;21.906;2022-07-29T00:16:58;98798.78;;;25.23;49.60
57574;BME280;43409;48.858;21.906;2022-07-29T00:19:24;98789.13;;;25.11;49.66
57574;BME280;43409;48.858;21.906;2022-07-29T00:21:49;98795.59;;;25.10;49.84
57574;BME280;43409;48.858;21.906;2022-07-29T00:24:14;98798.28;;;25.10;49.87
57574;BME280;43409;48.858;21.906;2022-07-29T00:26:40;98798.53;;;25.09;49.79
57574;BME280;43409;48.858;21.906;2022-07-29T00:29:05;98798.28;;;25.10;49.81
57574;BME280;43409;48.858;21.906;2022-07-29T00:31:31;98805.50;;;25.05;50.25
57574;BME280;43409;48.858;21.906;2022-07-29T00:33:56;98812.22;;;25.07;49.96
57574;BME280;43409;48.858;21.906;2022-07-29T00:36:22;98806.31;;;25.05;49.77
57574;BME280;43409;48.858;21.906;2022-07-29T00:38:48;98804.16;;;25.02;49.84
57574;BME280;43409;48.858;21.906;2022-07-29T00:41:14;98803.34;;;25.07;49.75
57574;BME280;43409;48.858;21.906;2022-07-29T00:43:40;98803.94;;;24.93;50.07
57574;BME280;43409;48.858;21.906;2022-07-29T00:46:06;98796.41;;;24.95;49.81
57574;BME280;43409;48.858;21.906;2022-07-29T00:48:31;98799.34;;;24.94;49.97
57574;BME280;43409;48.858;21.906;2022-07-29T00:50:57;98798.28;;;24.95;49.96
57574;BME280;43409;48.858;21.906;2022-07-29T00:53:24;98802.56;;;25.01;49.89
57574;BME280;43409;48.858;21.906;2022-07-29T00:55:50;98795.06;;;24.98;49.88
57574;BME280;43409;48.858;21.906;2022-07-29T00:58:16;98787.56;;;24.84;49.90
57574;BME280;43409;48.858;21.906;2022-07-29T01:00:41;98793.19;;;24.83;50.36
57574;BME280;43409;48.858;21.906;2022-07-29T01:03:07;98799.91;;;24.91;50.17
57574;BME280;43409;48.858;21.906;2022-07-29T01:05:34;98799.38;;;24.89;50.15
57574;BME280;43409;48.858;21.906;2022-07-29T01:08:00;98796.13;;;24.87;50.08
57574;BME280;43409;48.858;21.906;2022-07-29T01:10:27;98798.81;;;24.81;50.11
57574;BME280;43409;48.858;21.906;2022-07-29T01:12:57;98790.50;;;24.83;50.06
57574;BME280;43409;48.858;21.906;2022-07-29T01:15:24;98786.75;;;24.84;49.94
57574;BME280;43409;48.858;21.906;2022-07-29T01:20:28;98791.31;;;24.78;50.36
57574;BME280;43409;48.858;21.906;2022-07-29T01:28:47;98785.69;;;24.80;50.10
57574;BME280;43409;48.858;21.906;2022-07-29T01:31:20;98768.50;;;24.76;50.24
57574;BME280;43409;48.858;21.906;2022-07-29T01:33:52;98779.50;;;24.74;50.26
57574;BME280;43409;48.858;21.906;2022-07-29T01:36:27;98779.78;;;24.73;50.29
57574;BME280;43409;48.858;21.906;2022-07-29T01:39:06;98774.97;;;24.75;50.32
57574;BME280;43409;48.858;21.906;2022-07-29T01:41:34;98769.88;;;24.73;50.20
57574;BME280;43409;48.858;21.906;2022-07-29T01:44:16;98771.47;;;24.69;50.35
57574;BME280;43409;48.858;21.906;2022-07-29T01:46:54;98778.97;;;24.72;50.38
57574;BME280;43409;48.858;21.906;2022-07-29T01:49:27;98778.44;;;24.75;50.41
57574;BME280;43409;48.858;21.906;2022-07-29T01:52:07;98777.91;;;24.68;50.36
57574;BME280;43409;48.858;21.906;2022-07-29T01:54:43;98788.09;;;24.66;50.51
57574;BME280;43409;48.858;21.906;2022-07-29T01:57:15;98785.97;;;24.73;50.31
57574;BME280;43409;48.858;21.906;2022-07-29T01:59:46;98783.28;;;24.73;50.41
57574;BME280;43409;48.858;21.906;2022-07-29T02:02:16;98789.72;;;24.72;50.38
57574;BME280;43409;48.858;21.906;2022-07-29T02:04:44;98792.13;;;24.58;50.78
57574;BME280;43409;48.858;21.906;2022-07-29T02:07:17;98790.22;;;24.59;50.78
57574;BME280;43409;48.858;21.906;2022-07-29T02:09:43;98787.56;;;24.64;50.66
57574;BME280;43409;48.858;21.906;2022-07-29T02:12:11;98789.16;;;24.55;50.92
57574;BME280;43409;48.858;21.906;2022-07-29T02:14:40;98787.28;;;24.60;50.74
57574;BME280;43409;48.858;21.906;2022-07-29T02:17:10;98784.31;;;24.57;50.84
57574;BME280;43409;48.858;21.906;2022-07-29T02:19:38;98785.69;;;24.59;50.92
57574;BME280;43409;48.858;21.906;2022-07-29T02:22:06;98783.53;;;24.61;50.75
57574;BME280;43409;48.858;21.906;2022-07-29T02:24:33;98787.00;;;24.57;50.86
57574;BME280;43409;48.858;21.906;2022-07-29T02:27:02;98785.13;;;24.57;50.87
57574;BME280;43409;48.858;21.906;2022-07-29T02:29:30;98783.00;;;24.59;50.68
57574;BME280;43409;48.858;21.906;2022-07-29T02:31:57;98787.28;;;24.60;50.79
57574;BME280;43409;48.858;21.906;2022-07-29T02:34:24;98783.78;;;24.55;50.73
57574;BME280;43409;48.858;21.906;2022-07-29T02:36:51;98791.53;;;24.51;51.03
57574;BME280;43409;48.858;21.906;2022-07-29T02:39:18;98786.75;;;24.53;50.91
57574;BME280;43409;48.858;21.906;2022-07-29T02:41:52;98776.00;;;24.43;51.23
57574;BME280;43409;48.858;21.906;2022-07-29T02:44:19;98786.19;;;24.46;51.29
57574;BME280;43409;48.858;21.906;2022-07-29T02:46:52;98775.72;;;24.49;51.11
57574;BME280;43409;48.858;21.906;2022-07-29T02:49:48;98780.56;;;24.47;51.08
57574;BME280;43409;48.858;21.906;2022-07-29T02:52:41;98780.56;;;24.47;51.14
57574;BME280;43409;48.858;21.906;2022-07-29T02:55:31;98777.63;;;24.44;51.13
57574;BME280;43409;48.858;21.906;2022-07-29T02:58:04;98768.47;;;24.29;51.40
57574;BME280;43409;48.858;21.906;2022-07-29T03:00:34;98769.00;;;24.42;51.21
57574;BME280;43409;48.858;21.906;2022-07-29T03:03:04;98773.31;;;24.43;51.28
57574;BME280;43409;48.858;21.906;2022-07-29T03:05:33;98768.75;;;24.43;51.01
57574;BME280;43409;48.858;21.906;2022-07-29T03:08:01;98765.53;;;24.36;51.38
57574;BME280;43409;48.858;21.906;2022-07-29T03:10:28;98762.84;;;24.46;51.09
57574;BME280;43409;48.858;21.906;2022-07-29T03:12:55;98765.00;;;24.49;50.81
57574;BME280;43409;48.858;21.906;2022-07-29T03:15:21;98771.44;;;24.43;50.86
57574;BME280;43409;48.858;21.906;2022-07-29T03:17:48;98773.84;;;24.35;51.26
57574;BME280;43409;48.858;21.906;2022-07-29T03:20:14;98758.00;;;24.28;51.28
57574;BME280;43409;48.858;21.906;2022-07-29T03:22:41;98757.47;;;24.31;51.31
57574;BME280;43409;48.858;21.906;2022-07-29T03:25:13;98761.25;;;24.35;51.40
57574;BME280;43409;48.858;21.906;2022-07-29T03:27:40;98762.59;;;24.38;51.28
57574;BME280;43409;48.858;21.906;2022-07-29T03:30:06;98760.16;;;24.26;51.35
57574;BME280;43409;48.858;21.906;2022-07-29T03:32:32;98755.88;;;24.25;51.39
57574;BME280;43409;48.858;21.906;2022-07-29T03:34:58;98751.84;;;24.27;51.48
57574;BME280;43409;48.858;21.906;2022-07-29T03:37:23;98760.72;;;24.33;51.25
57574;BME280;43409;48.858;21.906;2022-07-29T03:39:49;98759.09;;;24.37;51.20
57574;BME280;43409;48.858;21.906;2022-07-29T03:42:17;98755.34;;;24.33;51.18
57574;BME280;43409;48.858;21.906;2022-07-29T03:44:47;98758.56;;;24.35;51.21
57574;BME280;43409;48.858;21.906;2022-07-29T03:47:15;98756.44;;;24.68;50.35
57574;BME280;43409;48.858;21.906;2022-07-29T03:49:44;98758.34;;;24.78;50.00
57574;BME280;43409;48.858;21.906;2022-07-29T03:52:13;98766.09;;;24.84;49.81
57574;BME280;43409;48.858;21.906;2022-07-29T03:54:39;98758.84;;;24.85;49.79
57574;BME280;43409;48.858;21.906;2022-07-29T03:57:05;98762.31;;;24.96;49.56
57574;BME280;43409;48.858;21.906;2022-07-29T03:59:33;98761.00;;;24.98;49.26
57574;BME280;43409;48.858;21.906;2022-07-29T04:02:04;98772.50;;;24.99;49.40
57574;BME280;43409;48.858;21.906;2022-07-29T04:04:33;98765.03;;;24.91;49.29
57574;BME280;43409;48.858;21.906;2022-07-29T04:06:59;98772.25;;;25.00;49.24
57574;BME280;43409;48.858;21.906;2022-07-29T04:09:25;98772.50;;;24.99;49.33
57574;BME280;43409;48.858;21.906;2022-07-29T04:11:51;98771.44;;;25.10;49.03
57574;BME280;43409;48.858;21.906;2022-07-29T04:14:16;98764.41;;;25.25;48.87
57574;BME280;43409;48.858;21.906;2022-07-29T04:16:42;98761.75;;;25.19;48.79
57574;BME280;43409;48.858;21.906;2022-07-29T04:19:07;98767.13;;;25.09;49.10
57574;BME280;43409;48.858;21.906;2022-07-29T04:21:43;98753.69;;;25.14;49.04
57574;BME280;43409;48.858;21.906;2022-07-29T04:24:10;98755.84;;;25.17;48.84
57574;BME280;43409;48.858;21.906;2022-07-29T04:26:35;98757.44;;;25.24;48.92
57574;BME280;43409;48.858;21.906;2022-07-29T04:29:01;98751.56;;;25.16;48.91
57574;BME280;43409;48.858;21.906;2022-07-29T04:31:26;98751.53;;;25.27;48.82
57574;BME280;43409;48.858;21.906;2022-07-29T04:33:51;98753.69;;;25.25;49.01
57574;BME280;43409;48.858;21.906;2022-07-29T04:36:17;98751.56;;;25.32;48.70
57574;BME280;43409;48.858;21.906;2022-07-29T04:38:42;98755.84;;;25.38;48.53
57574;BME280;43409;48.858;21.906;2022-07-29T04:41:08;98752.34;;;25.32;48.85
57574;BME280;43409;48.858;21.906;2022-07-29T04:43:35;98755.81;;;25.43;48.65
57574;BME280;43409;48.858;21.906;2022-07-29T04:46:01;98756.88;;;25.47;48.61
57574;BME280;43409;48.858;21.906;2022-07-29T04:48:26;98745.59;;;25.45;48.33
57574;BME280;43409;48.858;21.906;2022-07-29T04:50:52;98743.38;;;25.58;48.10
57574;BME280;43409;48.858;21.906;2022-07-29T04:53:17;98752.28;;;25.58;48.09
57574;BME280;43409;48.858;21.906;2022-07-29T04:55:43;98754.34;;;25.71;47.92
57574;BME280;43409;48.858;21.906;2022-07-29T04:58:08;98750.31;;;25.74;48.25
57574;BME280;43409;48.858;21.906;2022-07-29T05:00:34;98751.38;;;25.78;47.80
57574;BME280;43409;48.858;21.906;2022-07-29T05:02:59;98755.13;;;25.77;47.74
57574;BME280;43409;48.858;21.906;2022-07-29T05:05:25;98765.97;;;25.57;48.29
57574;BME280;43409;48.858;21.906;2022-07-29T05:07:50;98755.38;;;25.81;47.92
57574;BME280;43409;48.858;21.906;2022-07-29T05:10:15;98764.44;;;25.90;47.48
57574;BME280;43409;48.858;21.906;2022-07-29T05:12:41;98757.72;;;25.92;47.63
57574;BME280;43409;48.858;21.906;2022-07-29T05:15:07;98755.56;;;25.95;47.25
57574;BME280;43409;48.858;21.906;2022-07-29T05:17:32;98767.19;;;24.78;50.64
57574;BME280;43409;48.858;21.906;2022-07-29T05:19:58;98758.31;;;24.93;50.35
57574;BME280;43409;48.858;21.906;2022-07-29T05:22:24;98764.47;;;24.94;50.27
57574;BME280;43409;48.858;21.906;2022-07-29T05:24:49;98762.34;;;24.91;50.20
57574;BME280;43409;48.858;21.906;2022-07-29T05:27:14;98756.94;;;25.06;49.98
57574;BME280;43409;48.858;21.906;2022-07-29T05:29:40;98761.00;;;24.98;50.39
57574;BME280;43409;48.858;21.906;2022-07-29T05:32:05;98761.22;;;25.17;49.89
57574;BME280;43409;48.858;21.906;2022-07-29T05:34:31;98751.63;;;24.86;50.79
57574;BME280;43409;48.858;21.906;2022-07-29T05:36:57;98756.16;;;24.85;51.24
57574;BME280;43409;48.858;21.906;2022-07-29T05:39:23;98756.97;;;24.96;50.39
57574;BME280;43409;48.858;21.906;2022-07-29T05:41:48;98752.66;;;25.05;50.34
57574;BME280;43409;48.858;21.906;2022-07-29T05:44:14;98761.75;;;25.19;50.20
57574;BME280;43409;48.858;21.906;2022-07-29T05:46:39;98760.66;;;25.41;49.61
57574;BME280;43409;48.858;21.906;2022-07-29T05:49:05;98766.63;;;25.07;50.19
57574;BME280;43409;48.858;21.906;2022-07-29T05:51:32;98768.25;;;24.72;50.90
57574;BME280;43409;48.858;21.906;2022-07-29T05:53:58;98766.88;;;25.06;50.00
57574;BME280;43409;48.858;21.906;2022-07-29T05:56:23;98770.84;;;25.24;49.81
57574;BME280;43409;48.858;21.906;2022-07-29T05:58:49;98766.34;;;25.03;50.25
57574;BME280;43409;48.858;21.906;2022-07-29T06:01:14;98776.28;;;24.77;50.83
57574;BME280;43409;48.858;21.906;2022-07-29T06:03:40;98777.09;;;24.67;51.23
57574;BME280;43409;48.858;21.906;2022-07-29T06:06:07;98769.84;;;24.42;52.00
57574;BME280;43409;48.858;21.906;2022-07-29T06:08:33;98772.81;;;24.66;51.17
57574;BME280;43409;48.858;21.906;2022-07-29T06:10:59;98779.53;;;24.69;51.30
57574;BME280;43409;48.858;21.906;2022-07-29T06:13:25;98773.06;;;24.96;50.49
57574;BME280;43409;48.858;21.906;2022-07-29T06:15:50;98767.72;;;24.86;50.82
57574;BME280;43409;48.858;21.906;2022-07-29T06:18:16;98773.56;;;25.18;50.20
57574;BME280;43409;48.858;21.906;2022-07-29T06:20:41;98766.78;;;25.47;49.96
57574;BME280;43409;48.858;21.906;2022-07-29T06:23:06;98764.81;;;25.78;48.89
57574;BME280;43409;48.858;21.906;2022-07-29T06:25:32;98763.69;;;25.79;48.83
57574;BME280;43409;48.858;21.906;2022-07-29T06:28:00;98760.66;;;25.36;49.58
57574;BME280;43409;48.858;21.906;2022-07-29T06:30:25;98765.22;;;25.25;50.29
57574;BME280;43409;48.858;21.906;2022-07-29T06:32:51;98763.88;;;25.38;50.02
57574;BME280;43409;48.858;21.906;2022-07-29T06:35:17;98757.44;;;25.44;49.84
57574;BME280;43409;48.858;21.906;2022-07-29T06:37:42;98750.34;;;25.69;49.34
57574;BME280;43409;48.858;21.906;2022-07-29T06:40:08;98756.88;;;25.47;49.73
57574;BME280;43409;48.858;21.906;2022-07-29T06:42:52;98757.16;;;25.41;49.78
57574;BME280;43409;48.858;21.906;2022-07-29T06:45:17;98756.38;;;25.30;50.16
57574;BME280;43409;48.858;21.906;2022-07-29T06:47:43;98748.09;;;25.00;51.00
57574;BME280;43409;48.858;21.906;2022-07-29T06:50:08;98753.16;;;25.28;50.21
57574;BME280;43409;48.858;21.906;2022-07-29T06:52:37;98754.16;;;25.52;49.91
57574;BME280;43409;48.858;21.906;2022-07-29T06:55:03;98759.03;;;25.40;50.37
57574;BME280;43409;48.858;21.906;2022-07-29T06:57:28;98760.09;;;25.49;50.14
57574;BME280;43409;48.858;21.906;2022-07-29T06:59:56;98755.47;;;25.60;49.69
57574;BME280;43409;48.858;21.906;2022-07-29T07:02:21;98763.22;;;25.72;49.82
57574;BME280;43409;48.858;21.906;2022-07-29T07:04:47;98758.31;;;25.79;49.54
57574;BME280;43409;48.858;21.906;2022-07-29T07:07:12;98766.81;;;25.42;50.80
57574;BME280;43409;48.858;21.906;2022-07-29T07:09:37;98764.97;;;25.32;50.64
57574;BME280;43409;48.858;21.906;2022-07-29T07:12:03;98757.44;;;25.24;51.08
57574;BME280;43409;48.858;21.906;2022-07-29T07:14:28;98758.75;;;25.47;50.67
57574;BME280;43409;48.858;21.906;2022-07-29T07:16:54;98765.91;;;25.67;49.92
57574;BME280;43409;48.858;21.906;2022-07-29T07:19:19;98747.34;;;25.76;49.34
57574;BME280;43409;48.858;21.906;2022-07-29T07:21:45;98751.34;;;25.83;50.00
57574;BME280;43409;48.858;21.906;2022-07-29T07:24:10;98749.34;;;26.09;49.09
57574;BME280;43409;48.858;21.906;2022-07-29T07:26:35;98745.88;;;26.04;48.58
57574;BME280;43409;48.858;21.906;2022-07-29T07:29:01;98752.03;;;26.09;48.90
57574;BME280;43409;48.858;21.906;2022-07-29T07:31:26;98755.16;;;26.22;48.66
57574;BME280;43409;48.858;21.906;2022-07-29T07:33:52;98742.97;;;26.35;48.54
57574;BME280;43409;48.858;21.906;2022-07-29T07:36:18;98748.00;;;26.41;48.59
57574;BME280;43409;48.858;21.906;2022-07-29T07:38:44;98740.28;;;26.35;46.99
57574;BME280;43409;48.858;21.906;2022-07-29T07:41:09;98737.25;;;26.41;47.74
57574;BME280;43409;48.858;21.906;2022-07-29T07:43:35;98747.97;;;26.12;48.83
57574;BME280;43409;48.858;21.906;2022-07-29T07:46:00;98740.22;;;26.40;48.64
57574;BME280;43409;48.858;21.906;2022-07-29T07:48:25;98748.84;;;26.42;48.74
57574;BME280;43409;48.858;21.906;2022-07-29T07:50:51;98752.25;;;26.53;48.31
57574;BME280;43409;48.858;21.906;2022-07-29T07:53:16;98736.25;;;25.92;50.32
57574;BME280;43409;48.858;21.906;2022-07-29T07:55:43;98741.84;;;25.96;50.37
57574;BME280;43409;48.858;21.906;2022-07-29T07:58:09;98740.88;;;26.26;49.85
57574;BME280;43409;48.858;21.906;2022-07-29T08:00:34;98747.22;;;26.41;49.09
57574;BME280;43409;48.858;21.906;2022-07-29T08:03:00;98740.78;;;26.37;48.52
57574;BME280;43409;48.858;21.906;2022-07-29T08:05:25;98734.44;;;26.22;48.93
57574;BME280;43409;48.858;21.906;2022-07-29T08:07:52;98745.47;;;26.21;48.65
57574;BME280;43409;48.858;21.906;2022-07-29T08:10:19;98739.81;;;26.22;48.55
57574;BME280;43409;48.858;21.906;2022-07-29T08:13:04;98725.88;;;26.20;48.12
57574;BME280;43409;48.858;21.906;2022-07-29T08:15:30;98737.06;;;26.33;48.12
57574;BME280;43409;48.858;21.906;2022-07-29T08:17:55;98741.78;;;26.46;48.28
57574;BME280;43409;48.858;21.906;2022-07-29T08:20:20;98727.22;;;26.23;48.16
57574;BME280;43409;48.858;21.906;2022-07-29T08:22:46;98737.97;;;26.52;48.31
57574;BME280;43409;48.858;21.906;2022-07-29T08:25:11;98734.97;;;26.59;47.47
57574;BME280;43409;48.858;21.906;2022-07-29T08:27:37;98730.63;;;26.68;47.84
57574;BME280;43409;48.858;21.906;2022-07-29T08:30:03;98736.97;;;26.48;47.82
57574;BME280;43409;48.858;21.906;2022-07-29T08:32:28;98745.94;;;26.33;47.83
57574;BME280;43409;48.858;21.906;2022-07-29T08:34:56;98748.16;;;26.55;47.57
57574;BME280;43409;48.858;21.906;2022-07-29T08:37:22;98740.00;;;26.71;47.89
57574;BME280;43409;48.858;21.906;2022-07-29T08:39:47;98744.50;;;26.80;47.68
57574;BME280;43409;48.858;21.906;2022-07-29T08:42:12;98732.06;;;26.85;47.20
57574;BME280;43409;48.858;21.906;2022-07-29T08:44:39;98735.22;;;26.92;47.46
57574;BME280;43409;48.858;21.906;2022-07-29T08:47:04;98735.22;;;26.92;47.62
57574;BME280;43409;48.858;21.906;2022-07-29T08:49:32;98735.72;;;26.99;47.07
57574;BME280;43409;48.858;21.906;2022-07-29T08:51:58;98724.13;;;26.98;47.23
57574;BME280;43409;48.858;21.906;2022-07-29T08:54:25;98724.13;;;26.98;47.09
57574;BME280;43409;48.858;21.906;2022-07-29T08:56:51;98720.34;;;27.00;47.11
57574;BME280;43409;48.858;21.906;2022-07-29T08:59:22;98721.84;;;27.11;46.64
57574;BME280;43409;48.858;21.906;2022-07-29T09:01:48;98718.06;;;27.12;46.38
57574;BME280;43409;48.858;21.906;2022-07-29T09:04:18;98715.66;;;27.10;47.16
57574;BME280;43409;48.858;21.906;2022-07-29T09:06:48;98712.88;;;27.21;46.43
57574;BME280;43409;48.858;21.906;2022-07-29T09:09:14;98720.88;;;27.26;46.18
57574;BME280;43409;48.858;21.906;2022-07-29T09:11:41;98713.94;;;27.20;45.82
57574;BME280;43409;48.858;21.906;2022-07-29T09:14:08;98712.69;;;27.12;46.06
57574;BME280;43409;48.858;21.906;2022-07-29T09:16:54;98711.66;;;27.08;46.04
57574;BME280;43409;48.858;21.906;2022-07-29T09:19:22;98709.72;;;27.13;45.53
57574;BME280;43409;48.858;21.906;2022-07-29T09:21:47;98705.97;;;27.09;45.88
57574;BME280;43409;48.858;21.906;2022-07-29T09:24:38;98704.09;;;27.10;46.06
57574;BME280;43409;48.858;21.906;2022-07-29T09:27:24;98707.88;;;27.09;45.71
57574;BME280;43409;48.858;21.906;2022-07-29T09:30:04;98701.44;;;27.05;45.58
57574;BME280;43409;48.858;21.906;2022-07-29T09:32:30;98697.63;;;27.11;45.93
57574;BME280;43409;48.858;21.906;2022-07-29T09:37:41;98698.72;;;27.10;46.09
57574;BME280;43409;48.858;21.906;2022-07-29T09:40:25;98694.50;;;27.04;46.92
57574;BME280;43409;48.858;21.906;2022-07-29T09:42:51;98687.41;;;27.08;46.32
57574;BME280;43409;48.858;21.906;2022-07-29T09:45:27;98691.66;;;27.14;46.50
57574;BME280;43409;48.858;21.906;2022-07-29T09:47:53;98690.19;;;27.27;46.61
57574;BME280;43409;48.858;21.906;2022-07-29T09:50:19;98691.03;;;27.22;46.81
57574;BME280;43409;48.858;21.906;2022-07-29T09:52:52;98672.13;;;27.27;46.90
57574;BME280;43409;48.858;21.906;2022-07-29T09:55:20;98676.09;;;27.35;46.75
57574;BME280;43409;48.858;21.906;2022-07-29T09:57:46;98674.06;;;27.46;46.63
57574;BME280;43409;48.858;21.906;2022-07-29T10:00:14;98673.88;;;27.42;46.17
57574;BME280;43409;48.858;21.906;2022-07-29T10:02:41;98677.06;;;27.20;46.84
57574;BME280;43409;48.858;21.906;2022-07-29T10:05:24;98672.69;;;27.24;46.31
57574;BME280;43409;48.858;21.906;2022-07-29T10:07:54;98667.22;;;27.35;46.13
57574;BME280;43409;48.858;21.906;2022-07-29T10:10:22;98664.47;;;27.40;45.89
57574;BME280;43409;48.858;21.906;2022-07-29T10:12:59;98661.75;;;27.40;46.23
57574;BME280;43409;48.858;21.906;2022-07-29T10:15:28;98660.53;;;27.51;45.66
57574;BME280;43409;48.858;21.906;2022-07-29T10:17:57;98662.94;;;27.52;45.85
57574;BME280;43409;48.858;21.906;2022-07-29T10:20:23;98660.78;;;27.55;45.73
57574;BME280;43409;48.858;21.906;2022-07-29T10:22:50;98655.38;;;27.55;46.10
57574;BME280;43409;48.858;21.906;2022-07-29T10:25:16;98655.09;;;27.56;46.11
57574;BME280;43409;48.858;21.906;2022-07-29T10:27:46;98654.22;;;27.61;45.45
57574;BME280;43409;48.858;21.906;2022-07-29T10:30:14;98652.81;;;27.63;44.74
57574;BME280;43409;48.858;21.906;2022-07-29T10:33:18;98653.19;;;27.57;44.91
57574;BME280;43409;48.858;21.906;2022-07-29T10:42:24;98650.94;;;27.64;44.53
57574;BME280;43409;48.858;21.906;2022-07-29T10:44:22;98647.44;;;27.63;44.33
57574;BME280;43409;48.858;21.906;2022-07-29T10:46:49;98656.84;;;27.66;43.91
57574;BME280;43409;48.858;21.906;2022-07-29T10:52:03;98641.16;;;27.68;43.37
57574;BME280;43409;48.858;21.906;2022-07-29T10:54:41;98640.81;;;27.75;43.18
57574;BME280;43409;48.858;21.906;2022-07-29T10:59:39;98638.63;;;27.77;41.73
57574;BME280;43409;48.858;21.906;2022-07-29T11:07:25;98630.44;;;27.82;42.73
57574;BME280;43409;48.858;21.906;2022-07-29T11:15:10;98621.19;;;27.88;41.31
57574;BME280;43409;48.858;21.906;2022-07-29T11:23:30;98613.47;;;28.00;40.18
57574;BME280;43409;48.858;21.906;2022-07-29T11:31:16;98605.84;;;27.69;38.61
57574;BME280;43409;48.858;21.906;2022-07-29T11:33:44;98600.56;;;27.64;38.17
57574;BME280;43409;48.858;21.906;2022-07-29T11:36:11;98586.78;;;27.66;37.71
57574;BME280;43409;48.858;21.906;2022-07-29T11:38:37;98583.38;;;27.60;37.86
57574;BME280;43409;48.858;21.906;2022-07-29T11:41:29;98594.97;;;27.61;37.70
57574;BME280;43409;48.858;21.906;2022-07-29T11:44:01;98580.47;;;27.57;37.46
57574;BME280;43409;48.858;21.906;2022-07-29T11:46:48;98587.19;;;27.59;37.51
57574;BME280;43409;48.858;21.906;2022-07-29T11:49:25;98580.19;;;27.58;37.95
57574;BME280;43409;48.858;21.906;2022-07-29T11:51:55;98579.50;;;27.66;38.35
57574;BME280;43409;48.858;21.906;2022-07-29T11:54:26;98574.69;;;27.63;38.19
57574;BME280;43409;48.858;21.906;2022-07-29T11:56:52;98572.09;;;27.58;38.36
57574;BME280;43409;48.858;21.906;2022-07-29T11:59:19;98574.00;;;27.58;38.35
57574;BME280;43409;48.858;21.906;2022-07-29T12:01:58;98582.72;;;27.68;38.75
57574;BME280;43409;48.858;21.906;2022-07-29T12:04:24;98574.06;;;27.72;38.91
57574;BME280;43409;48.858;21.906;2022-07-29T12:06:54;98574.84;;;27.72;39.14
57574;BME280;43409;48.858;21.906;2022-07-29T12:09:21;98570.25;;;27.73;39.25
57574;BME280;43409;48.858;21.906;2022-07-29T12:11:47;98564.34;;;27.71;38.91
57574;BME280;43409;48.858;21.906;2022-07-29T12:14:29;98562.47;;;27.71;39.07
57574;BME280;43409;48.858;21.906;2022-07-29T12:16:56;98563.28;;;27.72;39.17
57574;BME280;43409;48.858;21.906;2022-07-29T12:19:21;98558.19;;;27.70;38.99
57574;BME280;43409;48.858;21.906;2022-07-29T12:21:49;98555.19;;;27.72;39.11
57574;BME280;43409;48.858;21.906;2022-07-29T12:24:15;98551.97;;;27.69;38.97
57574;BME280;43409;48.858;21.906;2022-07-29T12:29:17;98537.50;;;27.65;39.22
57574;BME280;43409;48.858;21.906;2022-07-29T12:31:43;98535.91;;;27.64;39.10
57574;BME280;43409;48.858;21.906;2022-07-29T12:34:10;98537.50;;;27.65;38.97
57574;BME280;43409;48.858;21.906;2022-07-29T12:36:36;98542.91;;;27.65;39.03
57574;BME280;43409;48.858;21.906;2022-07-29T12:39:03;98526.75;;;27.65;39.21
57574;BME280;43409;48.858;21.906;2022-07-29T12:41:29;98525.13;;;27.64;39.39
57574;BME280;43409;48.858;21.906;2022-07-29T12:43:55;98526.75;;;27.65;39.48
57574;BME280;43409;48.858;21.906;2022-07-29T12:46:21;98527.81;;;27.64;39.13
57574;BME280;43409;48.858;21.906;2022-07-29T12:48:50;98524.63;;;27.62;39.15
57574;BME280;43409;48.858;21.906;2022-07-29T12:51:34;98524.03;;;27.65;39.45
57574;BME280;43409;48.858;21.906;2022-07-29T12:54:14;98520.47;;;27.70;39.42
57574;BME280;43409;48.858;21.906;2022-07-29T12:56:41;98519.66;;;27.69;39.60
57574;BME280;43409;48.858;21.906;2022-07-29T13:01:38;98516.16;;;27.69;38.94
57574;BME280;43409;48.858;21.906;2022-07-29T13:04:04;98518.25;;;27.72;39.30
57574;BME280;43409;48.858;21.906;2022-07-29T13:06:45;98507.19;;;27.74;38.77
57574;BME280;43409;48.858;21.906;2022-07-29T13:09:20;98504.78;;;27.72;39.31
57574;BME280;43409;48.858;21.906;2022-07-29T13:11:52;98502.59;;;27.74;38.73
57574;BME280;43409;48.858;21.906;2022-07-29T13:14:33;98501.81;;;27.74;39.20
57574;BME280;43409;48.858;21.906;2022-07-29T13:19:37;98498.03;;;27.75;38.95
57574;BME280;43409;48.858;21.906;2022-07-29T13:22:05;98496.91;;;27.76;38.54
57574;BME280;43409;48.858;21.906;2022-07-29T13:24:31;98489.84;;;27.80;38.48
57574;BME280;43409;48.858;21.906;2022-07-29T13:26:56;98483.97;;;27.78;38.81
57574;BME280;43409;48.858;21.906;2022-07-29T13:29:21;98469.47;;;27.74;38.43
57574;BME280;43409;48.858;21.906;2022-07-29T13:31:47;98468.09;;;27.76;38.54
57574;BME280;43409;48.858;21.906;2022-07-29T13:34:12;98464.09;;;27.74;38.43
57574;BME280;43409;48.858;21.906;2022-07-29T13:36:37;98477.56;;;27.74;38.18
57574;BME280;43409;48.858;21.906;2022-07-29T13:39:03;98469.19;;;27.75;38.28
57574;BME280;43409;48.858;21.906;2022-07-29T13:41:29;98466.97;;;27.77;38.11
57574;BME280;43409;48.858;21.906;2022-07-29T13:43:54;98471.59;;;27.77;38.35
57574;BME280;43409;48.858;21.906;2022-07-29T13:46:20;98471.88;;;27.75;38.38
57574;BME280;43409;48.858;21.906;2022-07-29T13:48:46;98465.91;;;27.78;38.10